MRBP weather

Barra de Parismina Airport
Pococi, Limon, Costa Rica

Public forecast

Using degrees Celsius for public forecast. Weather courtesy of forecast.io.

Closest aviation weather report (METAR) to Barra de Parismina Airport

Closest report is Limon International Airport, 28.2 nm (52.3 km) SE. Retrieved 2020/06/01 21:00 UTC (49 minutes ago):

MRLM 012100Z 07005KT 9999 SCT025 BKN230 29/25 A2984

Closest aviation forecast (TAF) to Barra de Parismina Airport

Closest forecast is Limon International Airport, 28.2 nm (52.3 km) SE. Retrieved 2020/06/01 18:24 UTC (3 hours ago):

TAF MRLM 011700Z 0118/0218 04006KT 9999 FEW030 TX31/0119Z TN23/0212Z TEMPO 0121/0203 31004KT SHRA FEW020TCU BECMG 0201/0203 24004KT